METAR Data
IDs: Format: Raw Decoded Include TAF

Data at: 2057 UTC 18 Sep 2018

KF05 182035Z AUTO 20011G20KT 10SM SCT055 34/19 A2991 RMK AO1 T03440185
KF05 182015Z AUTO 20014G20KT 10SM SCT050 SCT065 34/19 A2992 RMK AO1 T03430187
KF05 181955Z AUTO 20015G20KT 10SM SCT050 34/18 A2993 RMK AO1 T03440184
KF05 181935Z AUTO 21013G19KT 10SM SCT050 34/18 A2994 RMK AO1 T03440184
KF05 181915Z AUTO 22012G19KT 10SM SCT050 34/19 A2995 RMK AO1 T03410189
KF05 181855Z AUTO 21012G19KT 10SM SCT050 34/19 A2996 RMK AO1 T03360192
KF05 181835Z AUTO 22012G17KT 10SM SCT047 SCT060 34/19 A2997 RMK AO1 T03350193
KF05 181815Z AUTO 21011G17KT 180V240 10SM 33/20 A2998 RMK AO1 T03310195
KF05 181755Z AUTO 22013G18KT 10SM SCT043 33/20 A2999 RMK AO1 6//// T03290198
KF05 181735Z AUTO 23010KT 7SM SCT041 33/20 A3000 RMK AO1 T03250200
KF05 181715Z AUTO 21013G18KT 10SM BKN039 32/20 A3001 RMK AO1 T03220201
KF05 181655Z AUTO 22013G19KT 10SM A3002 RMK AO1
KF05 181635Z AUTO 21013KT 10SM SCT036 31/21 A3002 RMK AO1 T03110205
KF05 181615Z AUTO 23014KT 10SM CLR 31/20 A3003 RMK AO1 T03070204
KF05 181555Z AUTO 25013KT 10SM CLR 30/21 A3003 RMK AO1 T03000205
KF05 181535Z AUTO 25010KT 10SM CLR 29/21 A3003 RMK AO1 T02940206
KF05 181515Z AUTO 22011G14KT 10SM CLR 28/21 A3003 RMK AO1 T02840207
KF05 181455Z AUTO 22008KT 10SM CLR 28/21 A3003 RMK AO1 T02780209
KF05 181435Z AUTO 21008KT 10SM CLR 27/21 A3003 RMK AO1 T02680208
KF05 181415Z AUTO 21007KT 10SM CLR 26/21 A3003 RMK AO1 T02580206
KF05 181355Z AUTO 22007KT 10SM CLR 25/21 A3002 RMK AO1 T02490206
KF05 181335Z AUTO 21004KT 10SM CLR 24/21 A3002 RMK AO1 T02400206
KF05 181315Z AUTO 21004KT 10SM CLR 23/21 A3002 RMK AO1 T02290205
KF05 181255Z AUTO 19004KT 5SM CLR 22/20 A3001 RMK AO1 T02220203
KF05 181235Z AUTO 20005KT 5SM CLR 22/20 A3001 RMK AO1 T02170200
KF05 181215Z AUTO 19005KT 10SM CLR 22/20 A3001 RMK AO1 T02200200
KF05 181155Z AUTO 20005KT 10SM CLR 22/20 A3000 RMK AO1 7//// T02210198 10349 20221
KF05 181135Z AUTO 21005KT 10SM CLR 22/20 A3000 RMK AO1 T02210197
KF05 181115Z AUTO 21005KT 10SM CLR 22/20 A3000 RMK AO1 T02210196
KF05 181055Z AUTO 22005KT 10SM CLR 22/19 A2999 RMK AO1 T02220194
KF05 181035Z AUTO 22004KT 10SM CLR 23/20 A2999 RMK AO1 T02250195
KF05 181015Z AUTO 21004KT 10SM CLR 23/19 A2999 RMK AO1 T02270194
KF05 180955Z AUTO 21005KT 10SM CLR 23/19 A2999 RMK AO1 T02290193
KF05 180935Z AUTO 23005KT 10SM CLR 23/19 A2999 RMK AO1 T02290191
KF05 180915Z AUTO 22004KT 10SM CLR 23/19 A2998 RMK AO1 T02310190
KF05 180855Z AUTO 23003KT 10SM CLR 23/19 A2999 RMK AO1 T02320190
KF05 180835Z AUTO 24003KT 10SM CLR 24/19 A2999 RMK AO1 T02360190
KF05 180815Z AUTO 00000KT 10SM CLR 24/19 A2999 RMK AO1 T02370190
KF05 180755Z AUTO 20003KT 10SM CLR 24/19 A2999 RMK AO1 T02380191
KF05 180735Z AUTO 20005KT 10SM CLR 24/19 A2998 RMK AO1 T02430191
KF05 180715Z AUTO 20004KT 7SM CLR 24/19 A2998 RMK AO1 T02420191
KF05 180655Z AUTO 18006KT 5SM CLR 24/19 A2998 RMK AO1 T02440191
KF05 180635Z AUTO 18006KT 5SM CLR 25/19 A2998 RMK AO1 T02470190
KF05 180615Z AUTO 18006KT 7SM CLR 25/19 A2998 RMK AO1 T02510190
KF05 180555Z AUTO 19006KT 5SM CLR 25/19 A2998 RMK AO1 T02480190 10349 20247
KF05 180535Z AUTO 18006KT 5SM CLR 25/19 A2999 RMK AO1 T02490190
KF05 180515Z AUTO 19006KT 7SM CLR 25/19 A2998 RMK AO1 T02500190
KF05 180455Z AUTO 17006KT 5SM CLR 25/19 A2998 RMK AO1 T02490187
KF05 180435Z AUTO 18006KT 4SM CLR 25/19 A2998 RMK AO1 T02510186
KF05 180415Z AUTO 18006KT 7SM CLR 26/18 A2998 RMK AO1 T02600183
KF05 180355Z AUTO 18007KT 10SM CLR 26/18 A2998 RMK AO1 T02640181
KF05 180335Z AUTO 19006KT 10SM CLR 27/18 A2997 RMK AO1 T02650181
KF05 180315Z AUTO 19007KT 10SM CLR 27/18 A2997 RMK AO1 T02670181
KF05 180255Z AUTO 19006KT 10SM CLR 27/18 A2997 RMK AO1 T02690183
KF05 180235Z AUTO 19006KT 10SM CLR 27/18 A2996 RMK AO1 T02730183
KF05 180215Z AUTO 19006KT 10SM CLR 28/18 A2996 RMK AO1 T02760182
KF05 180155Z AUTO 19006KT 10SM CLR 28/18 A2995 RMK AO1 T02800183
KF05 180135Z AUTO 18006KT 10SM CLR 29/18 A2994 RMK AO1 T02850182
KF05 180115Z AUTO 19006KT 10SM CLR 30/18 A2993 RMK AO1 T02980179
KF05 180055Z AUTO 19007KT 10SM CLR 31/18 A2993 RMK AO1 T03060177
KF05 180035Z AUTO 19007KT 10SM CLR 32/18 A2993 RMK AO1 T03160176
KF05 180015Z AUTO 20009KT 10SM CLR 32/17 A2992 RMK AO1 T03240173
KF05 172355Z AUTO 20009KT 10SM CLR 33/17 A2992 RMK AO1 T03310169 10349 20327
KF05 172335Z AUTO 21011KT 10SM CLR 34/17 A2992 RMK AO1 T03350171
KF05 172315Z AUTO 21013KT 10SM CLR 34/18 A2992 RMK AO1 T03380175
KF05 172255Z AUTO 21013G16KT 10SM SCT060 34/17 A2992 RMK AO1 T03420172
KF05 172235Z AUTO 20012G16KT 10SM SCT060 34/18 A2992 RMK AO1 LTG DSNT SW T03440175
KF05 172215Z AUTO 18013KT 10SM SCT060 35/18 A2992 RMK AO1 T03470175
KF05 172155Z AUTO 21010G15KT 10SM SCT060 35/17 A2993 RMK AO1 T03480170
KF05 172135Z AUTO 21010KT 10SM SCT060 35/17 A2993 RMK AO1 T03460169
KF05 172115Z AUTO 22013G18KT 10SM SCT060 34/17 A2994 RMK AO1 T03440169
KF05 172055Z AUTO 19007G14KT 10SM SCT060 34/17 A2994 RMK AO1 T03430172
KF05 172035Z AUTO 20010G18KT 10SM SCT055 34/18 A2995 RMK AO1 T03410175
KF05 172015Z AUTO 20010G19KT 160V230 10SM BKN055 34/18 A2995 RMK AO1 T03380178
KF05 171955Z AUTO 18011G15KT 10SM SCT055 34/18 A2996 RMK AO1 T03370183
KF05 171935Z AUTO 18007KT 10SM SCT055 34/18 A2996 RMK AO1 T03360179
KF05 171915Z AUTO 18011G15KT 10SM CLR 34/18 A2997 RMK AO1 T03350178
KF05 171855Z AUTO 19010G16KT 10SM CLR 33/18 A2998 RMK AO1 T03320184
KF05 171835Z AUTO 17010KT 7SM CLR 33/19 A2999 RMK AO1 T03300188
KF05 171815Z AUTO 20009KT 160V230 10SM SCT048 33/19 A3000 RMK AO1 T03270190
KF05 171735Z AUTO 20008KT 10SM CLR 32/20 A3001 RMK AO1 T03190196
KF05 171715Z AUTO 18009G15KT 10SM SCT038 31/20 A3002 RMK AO1 T03140200
KF05 171655Z AUTO 19007KT 10SM SCT036 31/21 A3003 RMK AO1 T03080206
KF05 171635Z AUTO 18007KT 10SM CLR 30/21 A3003 RMK AO1 T02990210
KF05 171615Z AUTO 19004KT 10SM CLR 30/21 A3003 RMK AO1 T02950212
KF05 171555Z AUTO 19003KT 10SM CLR 29/22 A3003 RMK AO1 T02890215
KF05 171535Z AUTO 19005KT 10SM CLR 28/22 A3003 RMK AO1 T02830218
KF05 171515Z AUTO 17005KT 10SM CLR 28/22 A3003 RMK AO1 T02780219
KF05 171455Z AUTO 17004KT 10SM CLR 27/22 A3002 RMK AO1 T02690221
KF05 171435Z AUTO 21004KT 10SM CLR 26/23 A3002 RMK AO1 T02610226
KF05 171415Z AUTO 19003KT 7SM CLR 25/23 A3002 RMK AO1 T02510230
KF05 171355Z AUTO 00000KT 5SM CLR 24/23 A3001 RMK AO1 T02410231
KF05 171335Z AUTO 00000KT 5SM CLR 23/23 A3001 RMK AO1 T02330229
KF05 171315Z AUTO 00000KT 2 1/2SM CLR 22/22 A3001 RMK AO1 T02240220
KF05 171255Z AUTO 00000KT 1/4SM VV002 22/21 A3000 RMK AO1 T02190214
KF05 171235Z AUTO 00000KT 1 1/2SM VV007 22/22 A2999 RMK AO1 T02230218
KF05 171215Z AUTO 00000KT 4SM CLR 22/22 A2999 RMK AO1 T02230217
KF05 171155Z AUTO 00000KT 5SM CLR 22/22 A2999 RMK AO1 7//// T02210215 10315 20220
KF05 171135Z AUTO 00000KT 5SM CLR 22/22 A2998 RMK AO1 T02220215
KF05 171115Z AUTO 00000KT 5SM CLR 23/22 A2998 RMK AO1 T02250218
KF05 171055Z AUTO 18003KT 5SM CLR 23/22 A2997 RMK AO1 T02250218
KF05 171035Z AUTO 20004KT 5SM CLR 23/22 A2997 RMK AO1 T02270218
KF05 171015Z AUTO 21004KT 5SM CLR 23/22 A2997 RMK AO1 T02290220
KF05 170955Z AUTO 21004KT 7SM CLR 23/22 A2997 RMK AO1 T02290218
KF05 170935Z AUTO 20003KT 7SM CLR 23/22 A2997 RMK AO1 T02330219
KF05 170915Z AUTO 00000KT 10SM CLR 24/22 A2997 RMK AO1 T02350220